Amity, North Carolina
Current Conditions -  °F | °C
As of 4:15 PM on Friday 24 Oct 2014 (Local Time) from KRUQ Reporting Station
Clear Clear  
Wind Chill: 65°   Ceiling: Unl
Heat Index: 65°   Visibility: 10mi
Dew Point: 42°   Wind: 0mph
Humidity: 43%   Direction: NA
Pressure: 30"   Gusts: NA
Location:  35.7427°N, 80.712°W
Report Text: KRUQ 242015Z AUTO 00000KT 10SM CLR 19/06 A3000 RMK AO2 T01850058
Loading
Personal Weather Stations






























Interactive Weather Map New forecast layout! Learn more

10-Day Weather Forecast

Advertisements
Track Severe Weather on mobile